.
WxDataArchive / Data Records for 2008-08-10
2008-08-09 August 2008 2008-08-11

Data Records for Sunday, 10 August 2008

Time	Temp	Chill	HIndex	Humid	Dewpt	 Wind 	HiWind	WindDir	Rain 	Barom 
-----	----	-----	------	-----	-----	------	------	-------	-----	----- 
00:00	61.6	61.6	61.6	95	60.2	0	0	---	0.00	29.852 
00:05	61.5	61.5	61.5	95	60.1	0	0	---	0.00	29.853 
00:10	61.3	61.3	61.3	95	59.9	0	0	---	0.00	29.856 
00:15	61.2	61.2	61.2	95	59.8	0	0	---	0.00	29.856 
00:20	61.0	61.0	61.0	95	59.6	0	0	---	0.00	29.857 
00:25	61.0	61.0	61.0	95	59.6	0	0	---	0.00	29.857 
00:30	60.9	60.9	60.9	95	59.5	0	0	---	0.00	29.856 
00:35	60.7	60.7	60.7	95	59.3	0	0	---	0.00	29.856 
00:40	60.5	60.5	60.5	95	59.1	0	0	---	0.00	29.855 
00:45	60.4	60.4	60.4	95	59.0	0	0	---	0.00	29.856 
00:50	60.2	60.2	60.2	95	58.8	0	0	---	0.00	29.856 
00:55	60.1	60.1	60.1	95	58.7	0	0	---	0.00	29.856 
01:00	59.9	59.9	59.9	95	58.5	0	0	---	0.00	29.856 
01:05	59.6	59.6	59.6	95	58.2	0	0	---	0.00	29.858 
01:10	59.6	59.6	59.6	95	58.2	0	0	---	0.00	29.858 
01:15	59.5	59.5	59.5	95	58.1	0	0	---	0.00	29.858 
01:20	59.5	59.5	59.5	95	58.1	0	0	---	0.00	29.857 
01:25	59.3	59.3	59.3	95	57.9	0	0	---	0.00	29.857 
01:30	59.3	59.3	59.3	95	57.9	0	0	---	0.00	29.854 
01:35	59.2	59.2	59.2	95	57.8	0	0	---	0.00	29.852 
01:40	59.2	59.2	59.2	95	57.8	0	0	---	0.00	29.852 
01:45	59.0	59.0	59.0	95	57.6	0	0	---	0.00	29.851 
01:50	59.0	59.0	59.0	95	57.6	0	0	---	0.00	29.851 
01:55	58.9	58.9	58.9	95	57.5	0	0	---	0.00	29.850 
02:00	58.9	58.9	58.9	96	57.8	0	0	---	0.00	29.848 
02:05	59.2	59.2	59.2	96	58.1	0	0	---	0.00	29.850 
02:10	59.5	59.5	59.5	96	58.4	0	0	---	0.00	29.848 
02:15	59.6	59.6	59.6	96	58.5	0	0	---	0.00	29.850 
02:20	59.6	59.6	59.6	96	58.5	0	0	---	0.00	29.853 
02:25	59.5	59.5	59.5	96	58.4	0	0	---	0.00	29.852 
02:30	59.3	59.3	59.3	96	58.2	0	0	---	0.00	29.852 
02:35	59.2	59.2	59.2	96	58.1	0	0	---	0.00	29.854 
02:40	59.0	59.0	59.0	96	57.9	0	0	---	0.00	29.857 
02:45	58.9	58.9	58.9	96	57.8	0	0	---	0.00	29.858 
02:50	58.9	58.9	58.9	96	57.8	0	1	315	0.00	29.859 
02:55	58.9	58.9	58.9	96	57.8	0	0	---	0.00	29.862 
03:00	58.9	58.9	58.9	96	57.8	0	0	---	0.00	29.861 
03:05	58.7	58.7	58.7	96	57.6	0	0	---	0.00	29.861 
03:10	58.6	58.6	58.6	96	57.5	0	0	---	0.00	29.859 
03:15	58.3	58.3	58.3	96	57.2	0	0	---	0.00	29.859 
03:20	58.0	58.0	58.0	96	56.9	0	0	---	0.00	29.859 
03:25	57.5	57.5	57.5	96	56.4	0	0	---	0.00	29.861 
03:30	57.0	57.0	57.0	96	55.9	0	0	---	0.00	29.862 
03:35	56.6	56.6	56.6	95	55.2	0	0	---	0.00	29.864 
03:40	56.3	56.3	56.3	96	55.2	0	1	315	0.00	29.865 
03:45	56.0	56.0	56.0	95	54.6	0	0	---	0.00	29.867 
03:50	55.9	55.9	55.9	95	54.5	0	0	---	0.00	29.868 
03:55	55.6	55.6	55.6	95	54.2	0	1	315	0.00	29.869 
04:00	55.3	55.3	55.3	95	53.9	0	0	---	0.00	29.872 
04:05	55.1	55.1	55.1	95	53.7	0	0	---	0.00	29.874 
04:10	54.8	54.8	54.8	94	53.1	0	1	315	0.00	29.876 
04:15	54.5	54.5	54.5	94	52.8	0	0	---	0.00	29.878 
04:20	54.2	54.2	54.2	94	52.5	0	1	315	0.00	29.881 
04:25	54.1	54.1	54.1	94	52.4	0	0	---	0.00	29.881 
04:30	53.8	53.8	53.8	94	52.1	0	0	---	0.00	29.882 
04:35	53.6	53.6	53.6	94	51.9	0	0	---	0.00	29.883 
04:40	53.5	53.5	53.5	93	51.5	0	0	---	0.00	29.884 
04:45	53.3	53.3	53.3	93	51.3	0	0	---	0.00	29.886 
04:50	53.1	53.1	53.1	93	51.1	0	0	---	0.00	29.887 
04:55	52.9	52.9	52.9	93	50.9	0	0	---	0.00	29.887 
05:00	52.8	52.8	52.8	93	50.8	0	0	---	0.00	29.888 
05:05	52.6	52.6	52.6	93	50.6	0	0	---	0.00	29.890 
05:10	52.5	52.5	52.5	93	50.5	0	0	---	0.00	29.895 
05:15	52.5	52.5	52.5	94	50.8	0	0	---	0.00	29.897 
05:20	52.3	52.3	52.3	94	50.6	0	0	---	0.00	29.900 
05:25	52.2	52.2	52.2	94	50.5	0	0	---	0.00	29.902 
05:30	52.2	52.2	52.2	94	50.5	0	0	---	0.00	29.902 
05:35	52.0	52.0	52.0	94	50.3	0	0	---	0.00	29.901 
05:40	51.9	51.9	51.9	94	50.2	0	0	---	0.00	29.902 
05:45	51.7	51.7	51.7	94	50.0	0	0	---	0.00	29.903 
05:50	51.6	51.6	51.6	94	49.9	0	0	---	0.00	29.903 
05:55	51.4	51.4	51.4	94	49.7	0	0	---	0.00	29.905 
06:00	51.4	51.4	51.4	94	49.7	0	0	---	0.00	29.905 
06:05	51.6	51.6	51.6	95	50.2	0	0	---	0.00	29.912 
06:10	51.7	51.7	51.7	95	50.3	0	0	---	0.00	29.911 
06:15	51.7	51.7	51.7	95	50.3	0	0	---	0.00	29.912 
06:20	51.9	51.9	51.9	95	50.5	0	0	---	0.00	29.912 
06:25	52.0	52.0	52.0	95	50.6	0	0	---	0.00	29.913 
06:30	52.2	52.2	52.2	95	50.8	0	0	---	0.00	29.915 
06:35	52.3	52.3	52.3	95	50.9	0	1	315	0.00	29.918 
06:40	52.5	52.5	52.5	94	50.8	0	1	315	0.00	29.922 
06:45	52.9	52.9	52.9	94	51.2	0	1	315	0.00	29.923 
06:50	53.2	53.2	53.2	93	51.2	0	1	315	0.00	29.923 
06:55	53.5	53.5	53.5	93	51.5	0	1	315	0.00	29.923 
07:00	53.9	53.9	53.9	92	51.6	0	1	315	0.00	29.924 
07:05	54.2	54.2	54.2	91	51.6	0	1	315	0.00	29.926 
07:10	54.7	54.7	54.7	90	51.8	0	1	315	0.00	29.925 
07:15	55.0	55.0	55.0	88	51.5	0	1	315	0.00	29.928 
07:20	55.4	55.4	55.4	87	51.6	0	0	---	0.00	29.928 
07:25	55.9	55.9	55.9	86	51.8	0	1	315	0.00	29.927 
07:30	56.3	56.3	56.3	84	51.5	0	1	315	0.00	29.928 
07:35	56.6	56.6	56.6	84	51.8	0	1	315	0.00	29.929 
07:40	57.0	57.0	57.0	83	51.9	0	1	315	0.00	29.929 
07:45	57.2	57.2	57.2	81	51.4	0	2	315	0.00	29.930 
07:50	57.8	57.8	57.8	81	52.0	0	1	315	0.00	29.930 
07:55	58.3	58.3	58.3	81	52.5	0	1	315	0.00	29.928 
08:00	58.4	58.4	58.4	80	52.3	0	2	315	0.00	29.928 
08:05	58.7	58.7	58.7	80	52.5	0	1	315	0.00	29.927 
08:10	59.2	59.2	59.2	78	52.3	0	1	315	0.00	29.926 
08:15	59.5	59.5	59.5	77	52.3	0	1	315	0.00	29.926 
08:20	59.8	59.8	59.8	75	51.9	0	2	315	0.00	29.928 
08:25	59.9	59.9	59.9	74	51.6	0	2	315	0.00	29.927 
08:30	60.2	60.2	60.2	75	52.2	0	1	315	0.00	29.927 
08:35	60.7	60.7	60.7	74	52.4	0	2	315	0.00	29.931 
08:40	61.0	61.0	61.0	73	52.3	0	2	315	0.00	29.933 
08:45	61.3	61.3	61.3	72	52.2	0	1	45	0.00	29.933 
08:50	61.6	61.6	61.6	71	52.1	0	2	338	0.00	29.930 
08:55	62.0	62.0	62.0	69	51.7	0	2	338	0.00	29.931 
09:00	62.3	62.3	62.3	68	51.6	1	3	338	0.00	29.931 
09:05	62.6	62.6	62.6	68	51.9	0	3	315	0.00	29.931 
09:10	63.1	63.1	63.1	68	52.4	0	3	338	0.00	29.928 
09:15	63.4	63.4	63.4	66	51.8	0	1	338	0.00	29.928 
09:20	63.5	63.5	63.5	65	51.5	1	5	270	0.00	29.930 
09:25	63.7	63.7	63.7	64	51.3	1	2	270	0.00	29.931 
09:30	63.5	63.5	63.5	65	51.5	1	2	22	0.00	29.930 
09:35	63.7	63.7	63.7	66	52.1	1	2	0	0.00	29.930 
09:40	64.2	64.2	64.2	66	52.6	1	3	248	0.00	29.930 
09:45	64.3	64.3	64.3	64	51.9	1	3	248	0.00	29.931 
09:50	64.3	64.3	64.3	65	52.3	1	3	315	0.00	29.930 
09:55	64.7	64.7	64.7	62	51.4	1	5	270	0.00	29.933 
10:00	64.8	64.8	64.8	63	51.9	1	4	292	0.00	29.932 
10:05	65.3	65.3	65.3	63	52.4	1	4	0	0.00	29.934 
10:10	65.6	65.6	65.6	62	52.2	1	2	292	0.00	29.931 
10:15	65.6	65.6	65.6	59	50.9	1	4	292	0.00	29.930 
10:20	65.6	65.6	65.6	57	49.9	1	4	315	0.00	29.932 
10:25	65.8	65.8	65.8	62	52.4	0	3	315	0.00	29.929 
10:30	66.1	66.1	66.1	58	50.9	1	2	338	0.00	29.928 
10:35	66.3	66.3	66.3	60	52.0	0	4	0	0.00	29.926 
10:40	66.0	66.0	66.0	58	50.8	2	5	292	0.00	29.925 
10:45	66.3	66.3	66.3	59	51.5	1	3	338	0.00	29.922 
10:50	66.4	66.4	66.4	59	51.6	1	3	315	0.00	29.921 
10:55	66.8	66.8	66.8	56	50.6	1	4	292	0.00	29.921 
11:00	67.1	67.1	67.1	56	50.9	1	3	338	0.00	29.921 
11:05	67.3	67.3	67.3	56	51.1	2	5	270	0.00	29.922 
11:10	67.4	67.4	67.4	55	50.7	1	5	270	0.00	29.919 
11:15	67.6	67.6	67.6	55	50.8	2	4	315	0.00	29.917 
11:20	67.8	67.8	67.8	57	52.0	1	3	45	0.00	29.917 
11:25	68.3	68.3	68.3	57	52.5	1	4	270	0.00	29.918 
11:30	68.6	68.6	68.6	53	50.8	1	4	315	0.00	29.917 
11:35	68.3	68.3	68.3	51	49.5	2	4	315	0.00	29.917 
11:40	68.3	68.3	68.3	51	49.5	2	6	315	0.00	29.916 
11:45	68.4	68.4	68.4	53	50.6	1	4	315	0.00	29.916 
11:50	69.1	69.1	69.1	52	50.7	1	4	68	0.00	29.915 
11:55	69.3	69.3	69.3	51	50.4	1	4	292	0.00	29.913 
12:00	69.4	69.4	69.4	53	51.5	1	3	315	0.00	29.910 
12:05	69.4	69.4	69.4	49	49.4	2	4	270	0.00	29.911 
12:10	69.6	69.6	69.6	49	49.6	1	5	292	0.00	29.908 
12:15	69.8	69.8	69.8	50	50.3	1	4	315	0.00	29.905 
12:20	69.9	69.9	69.9	50	50.4	1	4	315	0.00	29.906 
12:25	70.3	70.3	70.3	52	51.8	2	4	315	0.00	29.908 
12:30	70.1	70.1	70.1	50	50.6	2	6	292	0.00	29.904 
12:35	70.1	70.1	70.1	51	51.1	1	5	292	0.00	29.903 
12:40	70.4	70.4	70.4	50	50.9	2	6	315	0.00	29.902 
12:45	70.6	70.6	70.6	50	51.0	3	6	270	0.00	29.903 
12:50	70.8	70.8	70.8	50	51.2	1	4	270	0.00	29.901 
12:55	71.1	71.1	71.1	48	50.4	2	4	315	0.00	29.901 
13:00	71.5	71.5	71.5	49	51.3	1	4	292	0.00	29.899 
13:05	71.5	71.5	71.5	46	49.6	1	3	338	0.00	29.900 
13:10	71.6	71.6	71.6	49	51.4	1	3	315	0.00	29.899 
13:15	71.8	71.8	71.8	49	51.6	1	6	292	0.00	29.898 
13:20	72.1	72.1	72.1	50	52.4	1	5	270	0.00	29.897 
13:25	72.3	72.3	72.3	49	52.1	2	5	292	0.00	29.897 
13:30	72.3	72.3	72.3	49	52.1	2	4	315	0.00	29.897 
13:35	72.1	72.1	72.1	48	51.3	2	7	292	0.00	29.895 
13:40	72.0	72.0	72.0	44	48.9	2	3	292	0.00	29.895 
13:45	72.1	72.1	72.1	46	50.2	3	10	292	0.00	29.889 
13:50	72.3	72.3	72.3	47	50.9	3	6	270	0.00	29.896 
13:55	72.3	72.3	72.3	49	52.1	1	7	315	0.00	29.891 
14:00	72.7	72.7	72.7	48	51.9	3	6	270	0.00	29.887 
14:05	72.8	72.8	72.8	46	50.8	2	5	292	0.00	29.893 
14:10	73.3	73.3	73.3	47	51.8	1	4	292	0.00	29.892 
14:15	73.7	73.7	73.7	46	51.6	2	5	315	0.00	29.889 
14:20	73.5	73.5	73.5	43	49.6	2	6	315	0.00	29.888 
14:25	73.2	73.2	73.2	45	50.6	1	3	315	0.00	29.886 
14:30	73.0	73.0	73.0	46	51.0	1	4	292	0.00	29.886 
14:35	73.7	73.7	73.7	49	53.3	1	4	338	0.00	29.888 
14:40	74.2	74.2	74.2	46	52.1	1	4	248	0.00	29.885 
14:45	74.2	74.2	74.2	42	49.6	3	7	315	0.00	29.887 
14:50	73.7	73.7	73.7	44	50.4	2	5	338	0.00	29.885 
14:55	73.5	73.5	73.5	43	49.6	3	8	292	0.00	29.884 
15:00	73.5	73.5	73.5	43	49.6	3	6	315	0.00	29.885 
15:05	73.0	73.0	73.0	44	49.8	2	4	315	0.00	29.889 
15:10	72.1	72.1	72.1	47	50.7	1	4	315	0.00	29.888 
15:15	72.1	72.1	72.1	44	49.0	2	5	292	0.00	29.888 
15:20	71.8	71.8	71.8	44	48.7	1	5	270	0.00	29.888 
15:25	72.1	72.1	72.1	44	49.0	1	5	292	0.00	29.887 
15:30	72.5	72.5	72.5	45	49.9	1	3	292	0.00	29.887 
15:35	73.5	73.5	73.5	41	48.3	3	7	292	0.00	29.885 
15:40	73.3	73.3	73.3	41	48.2	3	6	292	0.00	29.886 
15:45	72.7	72.7	72.7	43	48.9	2	5	292	0.00	29.886 
15:50	72.8	72.8	72.8	43	49.0	2	5	292	0.00	29.886 
15:55	72.5	72.5	72.5	42	48.1	1	6	315	0.00	29.885 
16:00	73.0	73.0	73.0	43	49.2	1	4	292	0.00	29.884 
16:05	73.7	73.7	73.7	43	49.8	2	4	292	0.00	29.884 
16:10	74.2	74.2	74.2	41	49.0	1	5	270	0.00	29.884 
16:15	73.9	73.9	73.9	42	49.3	3	5	315	0.00	29.885 
16:20	73.7	73.7	73.7	43	49.8	1	4	338	0.00	29.884 
16:25	73.7	73.7	73.7	44	50.4	1	3	315	0.00	29.885 
16:30	73.7	73.7	73.7	45	51.0	0	2	315	0.00	29.884 
16:35	73.5	73.5	73.5	45	50.8	2	4	315	0.00	29.886 
16:40	73.2	73.2	73.2	44	50.0	2	5	315	0.00	29.886 
16:45	73.2	73.2	73.2	43	49.3	1	3	315	0.00	29.887 
16:50	73.0	73.0	73.0	43	49.2	2	5	292	0.00	29.888 
16:55	72.5	72.5	72.5	43	48.7	2	4	292	0.00	29.889 
17:00	72.5	72.5	72.5	44	49.3	1	4	270	0.00	29.889 
17:05	72.5	72.5	72.5	45	49.9	2	5	315	0.00	29.890 
17:10	72.3	72.3	72.3	45	49.8	1	6	270	0.00	29.893 
17:15	72.3	72.3	72.3	45	49.8	1	3	315	0.00	29.894 
17:20	72.5	72.5	72.5	45	49.9	1	5	270	0.00	29.896 
17:25	72.3	72.3	72.3	45	49.8	1	4	315	0.00	29.897 
17:30	72.1	72.1	72.1	45	49.6	1	3	292	0.00	29.895 
17:35	72.1	72.1	72.1	44	49.0	1	5	315	0.00	29.895 
17:40	72.1	72.1	72.1	45	49.6	1	3	292	0.00	29.895 
17:45	72.1	72.1	72.1	44	49.0	2	5	292	0.00	29.895 
17:50	72.0	72.0	72.0	46	50.1	2	5	292	0.00	29.894 
17:55	72.0	72.0	72.0	48	51.2	0	2	338	0.00	29.896 
18:00	71.8	71.8	71.8	46	49.9	2	4	292	0.00	29.894 
18:05	71.6	71.6	71.6	48	50.9	1	4	292	0.00	29.891 
18:10	71.5	71.5	71.5	49	51.3	1	5	315	0.00	29.892 
18:15	71.5	71.5	71.5	49	51.3	2	5	315	0.00	29.895 
18:20	71.1	71.1	71.1	51	52.0	1	3	292	0.00	29.900 
18:25	70.6	70.6	70.6	51	51.6	1	4	315	0.00	29.899 
18:30	70.4	70.4	70.4	52	51.9	1	3	315	0.00	29.901 
18:35	70.3	70.3	70.3	52	51.8	1	4	292	0.00	29.901 
18:40	70.3	70.3	70.3	52	51.8	1	4	292	0.00	29.899 
18:45	70.1	70.1	70.1	52	51.6	1	7	292	0.00	29.900 
18:50	69.9	69.9	69.9	53	52.0	0	2	292	0.00	29.900 
18:55	69.8	69.8	69.8	53	51.9	1	3	292	0.00	29.902 
19:00	69.6	69.6	69.6	53	51.7	1	4	292	0.00	29.904 
19:05	69.4	69.4	69.4	54	52.0	1	4	292	0.00	29.900 
19:10	69.3	69.3	69.3	54	51.9	1	4	292	0.00	29.903 
19:15	68.9	68.9	68.9	54	51.6	0	2	270	0.00	29.904 
19:20	68.6	68.6	68.6	55	51.8	0	1	292	0.00	29.905 
19:25	68.4	68.4	68.4	56	52.1	0	1	292	0.00	29.905 
19:30	68.1	68.1	68.1	57	52.3	0	1	292	0.00	29.907 
19:35	67.8	67.8	67.8	58	52.5	0	1	292	0.00	29.909 
19:40	67.4	67.4	67.4	59	52.6	0	1	292	0.00	29.908 
19:45	67.1	67.1	67.1	60	52.7	0	1	292	0.00	29.911 
19:50	66.8	66.8	66.8	60	52.5	0	0	---	0.00	29.910 
19:55	66.4	66.4	66.4	61	52.5	0	0	---	0.00	29.910 
20:00	66.3	66.3	66.3	62	52.9	0	0	---	0.00	29.910 
20:05	66.0	66.0	66.0	62	52.6	0	0	---	0.00	29.908 
20:10	65.8	65.8	65.8	62	52.4	0	0	---	0.00	29.908 
20:15	65.6	65.6	65.6	63	52.7	0	1	292	0.00	29.911 
20:20	65.5	65.5	65.5	63	52.6	0	1	292	0.00	29.913 
20:25	65.5	65.5	65.5	63	52.6	0	1	292	0.00	29.914 
20:30	65.3	65.3	65.3	64	52.8	0	1	292	0.00	29.916 
20:35	65.2	65.2	65.2	64	52.7	0	1	292	0.00	29.917 
20:40	65.0	65.0	65.0	65	52.9	0	1	292	0.00	29.918 
20:45	64.8	64.8	64.8	65	52.8	0	0	---	0.00	29.918 
20:50	64.5	64.5	64.5	65	52.5	0	0	---	0.00	29.918 
20:55	64.3	64.3	64.3	66	52.7	0	0	---	0.00	29.919 
21:00	64.2	64.2	64.2	67	53.0	0	1	292	0.00	29.919 
21:05	64.2	64.2	64.2	67	53.0	0	1	292	0.00	29.916 
21:10	64.0	64.0	64.0	68	53.2	0	0	---	0.00	29.917 
21:15	63.7	63.7	63.7	68	52.9	0	0	---	0.00	29.917 
21:20	63.5	63.5	63.5	69	53.1	0	0	---	0.00	29.919 
21:25	63.4	63.4	63.4	69	53.0	0	0	---	0.00	29.922 
21:30	63.2	63.2	63.2	70	53.2	0	0	---	0.00	29.924 
21:35	62.9	62.9	62.9	71	53.3	0	0	---	0.00	29.925 
21:40	62.7	62.7	62.7	71	53.2	0	0	---	0.00	29.927 
21:45	62.6	62.6	62.6	72	53.4	0	1	292	0.00	29.930 
21:50	62.4	62.4	62.4	72	53.2	0	0	---	0.00	29.932 
21:55	62.4	62.4	62.4	73	53.6	0	0	---	0.00	29.933 
22:00	62.3	62.3	62.3	73	53.5	0	1	292	0.00	29.934 
22:05	62.3	62.3	62.3	73	53.5	0	0	---	0.00	29.933 
22:10	62.1	62.1	62.1	73	53.3	0	0	---	0.00	29.932 
22:15	62.0	62.0	62.0	74	53.6	0	1	292	0.00	29.931 
22:20	62.1	62.1	62.1	74	53.7	0	1	292	0.00	29.930 
22:25	62.1	62.1	62.1	74	53.7	0	1	292	0.00	29.929 
22:30	62.0	62.0	62.0	75	54.0	0	1	292	0.00	29.928 
22:35	62.0	62.0	62.0	75	54.0	0	0	---	0.00	29.929 
22:40	61.8	61.8	61.8	76	54.1	0	0	---	0.00	29.928 
22:45	61.6	61.6	61.6	76	54.0	0	0	---	0.00	29.929 
22:50	61.5	61.5	61.5	77	54.2	0	1	292	0.00	29.930 
22:55	61.3	61.3	61.3	77	54.0	0	0	---	0.00	29.930 
23:00	61.2	61.2	61.2	78	54.3	0	0	---	0.00	29.931 
23:05	61.2	61.2	61.2	78	54.3	0	0	---	0.00	29.929 
23:10	61.0	61.0	61.0	78	54.1	0	0	---	0.00	29.930 
23:15	61.0	61.0	61.0	79	54.4	0	0	---	0.00	29.931 
23:20	60.9	60.9	60.9	79	54.3	0	0	---	0.00	29.930 
23:25	60.7	60.7	60.7	79	54.1	0	0	---	0.00	29.930 
23:30	60.7	60.7	60.7	80	54.5	0	0	---	0.00	29.930 
23:35	60.5	60.5	60.5	80	54.3	0	1	292	0.00	29.930 
23:40	60.5	60.5	60.5	80	54.3	0	0	---	0.00	29.930 
23:45	60.5	60.5	60.5	80	54.3	0	0	---	0.00	29.931 
23:50	60.4	60.4	60.4	81	54.5	0	0	---	0.00	29.933 
23:55	60.1	60.1	60.1	81	54.2	0	0	---	0.00	29.933 

CoCoRaHS
IN-AL-39
A2 Web Hosting
Creative Commons License
GoDaddy
Look for:

loaded 2017-12-13 15:30:54 • last modified 2010-11-18 10:43:29
Privacy PolicyDisclaimer
• wx.awcolley.com is powered by PmWiki v.2002016 •
• all content (unless otherwise noted) © 2017 A W Colley